Jim Thorpe, Pennsylvania
Current Conditions -  °F | °C
As of 4:35 PM on Wednesday 26 Nov 2014 (Local Time) from KHZL Reporting Station
Light Snow Light Snow  
Wind Chill: 22°   Ceiling: 300
Heat Index: 32°   Visibility: 1mi
Dew Point: 30°   Wind: 14mph
Humidity: 93%   Direction: 310°NW
Pressure: 29.9"   Gusts: 18mph
Location:  40.86°N, 75.74°W
Report Text: KHZL 262135Z AUTO 31012G16KT 1SM -SN OVC003 00/M01 A2990 RMK AO2
Loading
Personal Weather Stations






























Interactive Weather Map New forecast layout! Learn more

10-Day Weather Forecast

Advertisements
Track Severe Weather on mobile